sensor_id;sensor_type;location;lat;lon;timestamp;pressure;altitude;pressure_sealevel;temperature;humidity
72685;BME280;61365;52.162;4.500;2023-04-15T00:00:21;100822.50;;;9.48;62.17
72685;BME280;61365;52.162;4.500;2023-04-15T00:02:47;100828.63;;;9.53;62.06
72685;BME280;61365;52.162;4.500;2023-04-15T00:05:13;100824.25;;;9.53;61.76
72685;BME280;61365;52.162;4.500;2023-04-15T00:07:39;100825.19;;;9.77;60.83
72685;BME280;61365;52.162;4.500;2023-04-15T00:10:06;100823.38;;;9.54;61.78
72685;BME280;61365;52.162;4.500;2023-04-15T00:12:32;100832.06;;;9.33;62.45
72685;BME280;61365;52.162;4.500;2023-04-15T00:14:58;100832.91;;;9.30;62.47
72685;BME280;61365;52.162;4.500;2023-04-15T00:17:25;100835.53;;;9.32;63.01
72685;BME280;61365;52.162;4.500;2023-04-15T00:19:51;100832.06;;;9.38;62.82
72685;BME280;61365;52.162;4.500;2023-04-15T00:22:17;100832.09;;;9.50;62.38
72685;BME280;61365;52.162;4.500;2023-04-15T00:24:43;100832.13;;;9.59;61.47
72685;BME280;61365;52.162;4.500;2023-04-15T00:27:09;100834.75;;;9.55;61.64
72685;BME280;61365;52.162;4.500;2023-04-15T00:29:36;100832.03;;;9.30;62.57
72685;BME280;61365;52.162;4.500;2023-04-15T00:32:02;100834.59;;;9.22;62.27
72685;BME280;61365;52.162;4.500;2023-04-15T00:34:28;100838.88;;;9.05;62.70
72685;BME280;61365;52.162;4.500;2023-04-15T00:36:54;100847.63;;;9.05;62.61
72685;BME280;61365;52.162;4.500;2023-04-15T00:39:21;100841.63;;;9.29;61.86
72685;BME280;61365;52.162;4.500;2023-04-15T00:41:47;100852.66;;;8.76;63.66
72685;BME280;61365;52.162;4.500;2023-04-15T00:44:14;100848.53;;;9.13;62.42
72685;BME280;61365;52.162;4.500;2023-04-15T00:46:40;100844.06;;;8.98;62.46
72685;BME280;61365;52.162;4.500;2023-04-15T00:49:09;100837.88;;;8.81;62.95
72685;BME280;61365;52.162;4.500;2023-04-15T00:51:37;100845.94;;;9.15;61.75
72685;BME280;61365;52.162;4.500;2023-04-15T00:54:03;100846.75;;;9.03;62.14
72685;BME280;61365;52.162;4.500;2023-04-15T00:56:33;100842.31;;;8.91;61.43
72685;BME280;61365;52.162;4.500;2023-04-15T00:59:01;100842.31;;;8.93;61.23
72685;BME280;61365;52.162;4.500;2023-04-15T01:01:28;100841.31;;;8.74;62.26
72685;BME280;61365;52.162;4.500;2023-04-15T01:03:55;100838.88;;;9.05;61.35
72685;BME280;61365;52.162;4.500;2023-04-15T01:06:24;100845.72;;;8.76;62.24
72685;BME280;61365;52.162;4.500;2023-04-15T01:08:52;100836.16;;;8.83;61.70
72685;BME280;61365;52.162;4.500;2023-04-15T01:11:19;100836.22;;;8.92;61.88
72685;BME280;61365;52.162;4.500;2023-04-15T01:13:45;100846.66;;;8.91;62.06
72685;BME280;61365;52.162;4.500;2023-04-15T01:16:13;100854.38;;;8.70;62.51
72685;BME280;61365;52.162;4.500;2023-04-15T01:18:39;100856.13;;;8.70;62.50
72685;BME280;61365;52.162;4.500;2023-04-15T01:21:06;100845.66;;;8.71;62.21
72685;BME280;61365;52.162;4.500;2023-04-15T01:23:33;100840.44;;;8.71;62.86
72685;BME280;61365;52.162;4.500;2023-04-15T01:26:04;100850.94;;;8.76;62.94
72685;BME280;61365;52.162;4.500;2023-04-15T01:28:33;100850.84;;;8.62;63.06
72685;BME280;61365;52.162;4.500;2023-04-15T01:31:07;100849.16;;;8.74;62.74
72685;BME280;61365;52.162;4.500;2023-04-15T01:33:33;100840.38;;;8.62;63.24
72685;BME280;61365;52.162;4.500;2023-04-15T01:36:00;100849.09;;;8.63;63.77
72685;BME280;61365;52.162;4.500;2023-04-15T01:38:26;100835.19;;;8.68;63.36
72685;BME280;61365;52.162;4.500;2023-04-15T01:40:53;100844.84;;;8.79;62.78
72685;BME280;61365;52.162;4.500;2023-04-15T01:43:19;100837.75;;;8.61;64.06
72685;BME280;61365;52.162;4.500;2023-04-15T01:45:45;100855.16;;;8.57;63.83
72685;BME280;61365;52.162;4.500;2023-04-15T01:48:11;100846.28;;;8.41;64.82
72685;BME280;61365;52.162;4.500;2023-04-15T01:50:37;100853.31;;;8.44;64.65
72685;BME280;61365;52.162;4.500;2023-04-15T01:53:04;100855.00;;;8.40;64.57
72685;BME280;61365;52.162;4.500;2023-04-15T01:55:30;100848.81;;;8.29;65.77
72685;BME280;61365;52.162;4.500;2023-04-15T01:57:57;100862.75;;;8.29;65.77
72685;BME280;61365;52.162;4.500;2023-04-15T02:00:23;100857.66;;;8.45;65.22
72685;BME280;61365;52.162;4.500;2023-04-15T02:02:49;100853.28;;;8.45;64.98
72685;BME280;61365;52.162;4.500;2023-04-15T02:05:15;100861.22;;;8.53;64.61
72685;BME280;61365;52.162;4.500;2023-04-15T02:07:42;100866.22;;;8.28;65.64
72685;BME280;61365;52.162;4.500;2023-04-15T02:10:10;100862.81;;;8.37;65.57
72685;BME280;61365;52.162;4.500;2023-04-15T02:12:38;100854.16;;;8.46;64.94
72685;BME280;61365;52.162;4.500;2023-04-15T02:15:04;100868.94;;;8.39;65.32
72685;BME280;61365;52.162;4.500;2023-04-15T02:17:34;100866.31;;;8.39;65.82
72685;BME280;61365;52.162;4.500;2023-04-15T02:20:02;100859.50;;;8.53;64.73
72685;BME280;61365;52.162;4.500;2023-04-15T02:22:33;100868.97;;;8.40;65.56
72685;BME280;61365;52.162;4.500;2023-04-15T02:24:59;100880.16;;;8.25;66.07
72685;BME280;61365;52.162;4.500;2023-04-15T02:27:25;100880.94;;;8.17;66.97
72685;BME280;61365;52.162;4.500;2023-04-15T02:29:53;100884.31;;;8.06;67.89
72685;BME280;61365;52.162;4.500;2023-04-15T02:32:19;100884.34;;;8.11;67.41
72685;BME280;61365;52.162;4.500;2023-04-15T02:34:47;100886.06;;;8.09;67.84
72685;BME280;61365;52.162;4.500;2023-04-15T02:37:13;100888.47;;;7.87;69.21
72685;BME280;61365;52.162;4.500;2023-04-15T02:39:41;100883.31;;;7.95;68.54
72685;BME280;61365;52.162;4.500;2023-04-15T02:42:07;100894.69;;;7.99;69.52
72685;BME280;61365;52.162;4.500;2023-04-15T02:44:33;100900.25;;;8.30;67.68
72685;BME280;61365;52.162;4.500;2023-04-15T02:47:01;100898.47;;;8.25;67.99
72685;BME280;61365;52.162;4.500;2023-04-15T02:49:28;100894.16;;;8.31;66.93
72685;BME280;61365;52.162;4.500;2023-04-15T02:51:55;100901.69;;;8.00;68.24
72685;BME280;61365;52.162;4.500;2023-04-15T02:54:23;100900.78;;;7.99;68.18
72685;BME280;61365;52.162;4.500;2023-04-15T02:56:49;100908.63;;;7.99;67.84
72685;BME280;61365;52.162;4.500;2023-04-15T02:59:15;100908.63;;;7.97;68.26
72685;BME280;61365;52.162;4.500;2023-04-15T03:01:41;100905.78;;;7.77;68.80
72685;BME280;61365;52.162;4.500;2023-04-15T03:04:08;100923.09;;;7.68;69.60
72685;BME280;61365;52.162;4.500;2023-04-15T03:06:34;100911.19;;;7.93;68.74
72685;BME280;61365;52.162;4.500;2023-04-15T03:09:00;100913.00;;;7.99;68.00
72685;BME280;61365;52.162;4.500;2023-04-15T03:11:27;100912.72;;;7.74;68.65
72685;BME280;61365;52.162;4.500;2023-04-15T03:13:54;100908.41;;;7.77;69.29
72685;BME280;61365;52.162;4.500;2023-04-15T03:16:20;100914.63;;;7.90;68.27
72685;BME280;61365;52.162;4.500;2023-04-15T03:18:46;100920.56;;;7.75;69.59
72685;BME280;61365;52.162;4.500;2023-04-15T03:21:12;100905.44;;;7.49;69.90
72685;BME280;61365;52.162;4.500;2023-04-15T03:23:38;100918.75;;;7.70;70.01
72685;BME280;61365;52.162;4.500;2023-04-15T03:26:04;100922.00;;;7.51;70.44
72685;BME280;61365;52.162;4.500;2023-04-15T03:28:30;100923.00;;;7.60;70.67
72685;BME280;61365;52.162;4.500;2023-04-15T03:30:57;100929.16;;;7.66;69.94
72685;BME280;61365;52.162;4.500;2023-04-15T03:33:24;100926.34;;;7.49;70.80
72685;BME280;61365;52.162;4.500;2023-04-15T03:35:50;100923.81;;;7.57;71.25
72685;BME280;61365;52.162;4.500;2023-04-15T03:38:17;100931.91;;;7.76;70.65
72685;BME280;61365;52.162;4.500;2023-04-15T03:40:44;100934.56;;;7.82;70.23
72685;BME280;61365;52.162;4.500;2023-04-15T03:43:11;100927.50;;;7.73;70.49
72685;BME280;61365;52.162;4.500;2023-04-15T03:45:37;100932.84;;;7.81;70.97
72685;BME280;61365;52.162;4.500;2023-04-15T03:48:08;100931.69;;;7.59;71.89
72685;BME280;61365;52.162;4.500;2023-04-15T03:50:36;100931.09;;;7.81;70.74
72685;BME280;61365;52.162;4.500;2023-04-15T03:53:02;100937.13;;;7.76;71.10
72685;BME280;61365;52.162;4.500;2023-04-15T03:55:29;100946.06;;;7.98;70.31
72685;BME280;61365;52.162;4.500;2023-04-15T03:57:55;100945.81;;;7.76;70.80
72685;BME280;61365;52.162;4.500;2023-04-15T04:00:21;100959.91;;;7.88;71.18
72685;BME280;61365;52.162;4.500;2023-04-15T04:02:47;100950.09;;;7.71;71.17
72685;BME280;61365;52.162;4.500;2023-04-15T04:05:13;100959.66;;;7.68;71.78
72685;BME280;61365;52.162;4.500;2023-04-15T04:07:39;100964.97;;;7.75;71.92
72685;BME280;61365;52.162;4.500;2023-04-15T04:10:05;100963.97;;;7.64;72.90
72685;BME280;61365;52.162;4.500;2023-04-15T04:12:32;100985.06;;;7.78;72.36
72685;BME280;61365;52.162;4.500;2023-04-15T04:14:58;100972.84;;;7.78;72.21
72685;BME280;61365;52.162;4.500;2023-04-15T04:17:24;100981.28;;;7.57;73.15
72685;BME280;61365;52.162;4.500;2023-04-15T04:19:50;100979.81;;;7.78;72.33
72685;BME280;61365;52.162;4.500;2023-04-15T04:22:16;100978.03;;;7.75;72.29
72685;BME280;61365;52.162;4.500;2023-04-15T04:24:42;100985.94;;;7.81;72.24
72685;BME280;61365;52.162;4.500;2023-04-15T04:27:09;100980.44;;;7.60;73.13
72685;BME280;61365;52.162;4.500;2023-04-15T04:29:35;100988.44;;;7.72;72.18
72685;BME280;61365;52.162;4.500;2023-04-15T04:32:01;100986.50;;;7.57;73.92
72685;BME280;61365;52.162;4.500;2023-04-15T04:34:27;100996.19;;;7.64;74.01
72685;BME280;61365;52.162;4.500;2023-04-15T04:36:53;100997.13;;;7.71;73.16
72685;BME280;61365;52.162;4.500;2023-04-15T04:39:19;100991.81;;;7.62;73.81
72685;BME280;61365;52.162;4.500;2023-04-15T04:41:46;101004.19;;;7.77;73.50
72685;BME280;61365;52.162;4.500;2023-04-15T04:44:12;101000.78;;;7.84;73.31
72685;BME280;61365;52.162;4.500;2023-04-15T04:46:38;101008.38;;;7.64;73.24
72685;BME280;61365;52.162;4.500;2023-04-15T04:49:04;101011.09;;;7.72;73.39
72685;BME280;61365;52.162;4.500;2023-04-15T04:51:30;101014.66;;;7.78;73.72
72685;BME280;61365;52.162;4.500;2023-04-15T04:53:57;101023.44;;;7.85;72.47
72685;BME280;61365;52.162;4.500;2023-04-15T04:56:23;101023.34;;;7.77;73.31
72685;BME280;61365;52.162;4.500;2023-04-15T04:58:49;101025.00;;;7.71;73.76
72685;BME280;61365;52.162;4.500;2023-04-15T05:01:15;101032.44;;;7.44;74.66
72685;BME280;61365;52.162;4.500;2023-04-15T05:03:42;101040.38;;;7.49;74.91
72685;BME280;61365;52.162;4.500;2023-04-15T05:06:08;101046.84;;;7.76;74.33
72685;BME280;61365;52.162;4.500;2023-04-15T05:08:34;101043.69;;;8.02;73.08
72685;BME280;61365;52.162;4.500;2023-04-15T05:11:01;101057.53;;;7.93;72.96
72685;BME280;61365;52.162;4.500;2023-04-15T05:13:28;101063.56;;;7.89;73.04
72685;BME280;61365;52.162;4.500;2023-04-15T05:15:54;101060.91;;;7.86;74.21
72685;BME280;61365;52.162;4.500;2023-04-15T05:18:21;101068.56;;;7.72;74.37
72685;BME280;61365;52.162;4.500;2023-04-15T05:20:47;101072.25;;;7.88;73.70
72685;BME280;61365;52.162;4.500;2023-04-15T05:23:14;101071.78;;;8.18;73.24
72685;BME280;61365;52.162;4.500;2023-04-15T05:25:42;101079.03;;;8.39;72.96
72685;BME280;61365;52.162;4.500;2023-04-15T05:28:08;101084.25;;;8.41;72.59
72685;BME280;61365;52.162;4.500;2023-04-15T05:30:34;101086.50;;;8.85;70.72
72685;BME280;61365;52.162;4.500;2023-04-15T05:33:00;101095.25;;;8.86;70.33
72685;BME280;61365;52.162;4.500;2023-04-15T05:35:26;101091.44;;;8.56;71.31
72685;BME280;61365;52.162;4.500;2023-04-15T05:37:52;101104.06;;;8.94;69.86
72685;BME280;61365;52.162;4.500;2023-04-15T05:40:19;101115.13;;;8.70;71.57
72685;BME280;61365;52.162;4.500;2023-04-15T05:42:45;101120.75;;;9.06;70.10
72685;BME280;61365;52.162;4.500;2023-04-15T05:45:11;101114.53;;;8.94;70.28
72685;BME280;61365;52.162;4.500;2023-04-15T05:47:38;101122.84;;;9.47;68.74
72685;BME280;61365;52.162;4.500;2023-04-15T05:50:04;101122.94;;;9.61;68.38
72685;BME280;61365;52.162;4.500;2023-04-15T05:52:31;101124.97;;;9.99;67.20
72685;BME280;61365;52.162;4.500;2023-04-15T05:54:57;101134.88;;;10.50;65.87
72685;BME280;61365;52.162;4.500;2023-04-15T05:57:23;101142.53;;;10.16;66.81
72685;BME280;61365;52.162;4.500;2023-04-15T05:59:49;101148.88;;;10.61;64.65
72685;BME280;61365;52.162;4.500;2023-04-15T06:02:18;101155.97;;;10.86;63.77
72685;BME280;61365;52.162;4.500;2023-04-15T06:04:44;101150.78;;;11.18;63.88
72685;BME280;61365;52.162;4.500;2023-04-15T06:07:11;101162.19;;;11.26;63.38
72685;BME280;61365;52.162;4.500;2023-04-15T06:09:37;101168.34;;;11.33;62.63
72685;BME280;61365;52.162;4.500;2023-04-15T06:12:03;101178.00;;;11.54;62.78
72685;BME280;61365;52.162;4.500;2023-04-15T06:14:29;101178.84;;;11.32;63.30
72685;BME280;61365;52.162;4.500;2023-04-15T06:16:55;101187.59;;;11.31;63.60
72685;BME280;61365;52.162;4.500;2023-04-15T06:19:21;101190.25;;;11.51;62.30
72685;BME280;61365;52.162;4.500;2023-04-15T06:21:47;101193.72;;;11.28;63.17
72685;BME280;61365;52.162;4.500;2023-04-15T06:24:13;101209.47;;;11.17;64.18
72685;BME280;61365;52.162;4.500;2023-04-15T06:26:40;101205.84;;;10.87;65.30
72685;BME280;61365;52.162;4.500;2023-04-15T06:29:06;101212.13;;;11.37;63.57
72685;BME280;61365;52.162;4.500;2023-04-15T06:31:32;101211.19;;;11.06;64.94
72685;BME280;61365;52.162;4.500;2023-04-15T06:33:58;101216.53;;;11.62;63.50
72685;BME280;61365;52.162;4.500;2023-04-15T06:36:24;101221.78;;;11.93;62.71
72685;BME280;61365;52.162;4.500;2023-04-15T06:38:51;101215.66;;;12.26;61.53
72685;BME280;61365;52.162;4.500;2023-04-15T06:41:17;101223.56;;;11.69;62.62
72685;BME280;61365;52.162;4.500;2023-04-15T06:43:43;101223.53;;;11.55;63.59
72685;BME280;61365;52.162;4.500;2023-04-15T06:46:09;101236.75;;;12.09;61.42
72685;BME280;61365;52.162;4.500;2023-04-15T06:48:36;101233.16;;;12.43;60.61
72685;BME280;61365;52.162;4.500;2023-04-15T06:51:02;101231.41;;;12.42;62.15
72685;BME280;61365;52.162;4.500;2023-04-15T06:53:29;101239.16;;;12.90;58.74
72685;BME280;61365;52.162;4.500;2023-04-15T06:55:55;101243.72;;;12.13;61.76
72685;BME280;61365;52.162;4.500;2023-04-15T06:58:21;101245.44;;;12.55;61.49
72685;BME280;61365;52.162;4.500;2023-04-15T07:00:47;101245.31;;;12.84;59.89
72685;BME280;61365;52.162;4.500;2023-04-15T07:03:17;101257.66;;;12.62;58.33
72685;BME280;61365;52.162;4.500;2023-04-15T07:05:43;101262.03;;;11.23;62.21
72685;BME280;61365;52.162;4.500;2023-04-15T07:08:09;101270.06;;;12.01;60.37
72685;BME280;61365;52.162;4.500;2023-04-15T07:10:35;101263.88;;;11.69;61.57
72685;BME280;61365;52.162;4.500;2023-04-15T07:13:01;101263.00;;;11.92;60.92
72685;BME280;61365;52.162;4.500;2023-04-15T07:15:28;101270.91;;;12.22;60.10
72685;BME280;61365;52.162;4.500;2023-04-15T07:17:54;101269.19;;;12.05;61.23
72685;BME280;61365;52.162;4.500;2023-04-15T07:20:21;101278.81;;;12.11;61.10
72685;BME280;61365;52.162;4.500;2023-04-15T07:22:47;101278.81;;;12.19;60.41
72685;BME280;61365;52.162;4.500;2023-04-15T07:25:13;101283.13;;;12.61;59.16
72685;BME280;61365;52.162;4.500;2023-04-15T07:27:39;101294.59;;;12.29;60.64
72685;BME280;61365;52.162;4.500;2023-04-15T07:30:07;101296.28;;;12.75;59.23
72685;BME280;61365;52.162;4.500;2023-04-15T07:32:33;101297.09;;;12.90;58.88
72685;BME280;61365;52.162;4.500;2023-04-15T07:35:00;101299.59;;;13.27;57.65
72685;BME280;61365;52.162;4.500;2023-04-15T07:37:26;101297.69;;;13.56;57.40
72685;BME280;61365;52.162;4.500;2023-04-15T07:39:53;101309.28;;;13.24;57.39
72685;BME280;61365;52.162;4.500;2023-04-15T07:42:19;101315.63;;;12.59;58.41
72685;BME280;61365;52.162;4.500;2023-04-15T07:44:45;101328.81;;;12.31;59.70
72685;BME280;61365;52.162;4.500;2023-04-15T07:47:11;101329.69;;;12.35;60.12
72685;BME280;61365;52.162;4.500;2023-04-15T07:49:37;101328.81;;;12.34;60.45
72685;BME280;61365;52.162;4.500;2023-04-15T07:52:04;101341.91;;;12.79;58.53
72685;BME280;61365;52.162;4.500;2023-04-15T07:54:30;101346.34;;;12.15;60.26
72685;BME280;61365;52.162;4.500;2023-04-15T07:56:56;101344.44;;;13.19;57.58
72685;BME280;61365;52.162;4.500;2023-04-15T07:59:23;101346.09;;;13.39;57.10
72685;BME280;61365;52.162;4.500;2023-04-15T08:01:49;101350.69;;;12.78;59.04
72685;BME280;61365;52.162;4.500;2023-04-15T08:04:15;101351.41;;;13.27;57.74
72685;BME280;61365;52.162;4.500;2023-04-15T08:06:41;101350.25;;;13.90;56.55
72685;BME280;61365;52.162;4.500;2023-04-15T08:09:07;101356.44;;;13.86;55.71
72685;BME280;61365;52.162;4.500;2023-04-15T08:11:34;101361.88;;;13.56;55.35
72685;BME280;61365;52.162;4.500;2023-04-15T08:14:01;101375.09;;;13.48;54.76
72685;BME280;61365;52.162;4.500;2023-04-15T08:16:27;101375.09;;;13.37;54.36
72685;BME280;61365;52.162;4.500;2023-04-15T08:18:54;101396.19;;;13.37;53.77
72685;BME280;61365;52.162;4.500;2023-04-15T08:21:21;101391.06;;;12.82;55.69
72685;BME280;61365;52.162;4.500;2023-04-15T08:23:49;101384.00;;;12.90;56.46
72685;BME280;61365;52.162;4.500;2023-04-15T08:26:17;101395.28;;;13.39;54.82
72685;BME280;61365;52.162;4.500;2023-04-15T08:28:44;101392.38;;;14.04;53.29
72685;BME280;61365;52.162;4.500;2023-04-15T08:31:12;101392.19;;;14.32;53.31
72685;BME280;61365;52.162;4.500;2023-04-15T08:33:39;101402.19;;;13.83;55.13
72685;BME280;61365;52.162;4.500;2023-04-15T08:36:05;101412.81;;;13.60;54.20
72685;BME280;61365;52.162;4.500;2023-04-15T08:38:32;101423.50;;;13.04;55.22
72685;BME280;61365;52.162;4.500;2023-04-15T08:41:02;101412.09;;;13.05;56.24
72685;BME280;61365;52.162;4.500;2023-04-15T08:43:44;101413.59;;;13.84;54.07
72685;BME280;61365;52.162;4.500;2023-04-15T08:46:16;101429.44;;;13.80;53.61
72685;BME280;61365;52.162;4.500;2023-04-15T08:48:43;101426.06;;;13.46;54.51
72685;BME280;61365;52.162;4.500;2023-04-15T08:51:12;101424.91;;;14.09;52.57
72685;BME280;61365;52.162;4.500;2023-04-15T08:53:41;101430.34;;;13.72;54.05
72685;BME280;61365;52.162;4.500;2023-04-15T08:56:09;101446.00;;;14.09;52.54
72685;BME280;61365;52.162;4.500;2023-04-15T08:58:38;101433.53;;;14.28;52.57
72685;BME280;61365;52.162;4.500;2023-04-15T09:01:05;101445.00;;;14.25;52.04
72685;BME280;61365;52.162;4.500;2023-04-15T09:03:32;101447.63;;;14.32;54.88
72685;BME280;61365;52.162;4.500;2023-04-15T09:05:58;101450.31;;;14.22;51.87
72685;BME280;61365;52.162;4.500;2023-04-15T09:08:24;101443.16;;;14.38;52.85
72685;BME280;61365;52.162;4.500;2023-04-15T09:10:52;101449.94;;;14.75;51.63
72685;BME280;61365;52.162;4.500;2023-04-15T09:13:18;101454.75;;;15.25;49.99
72685;BME280;61365;52.162;4.500;2023-04-15T09:15:44;101452.63;;;14.69;50.49
72685;BME280;61365;52.162;4.500;2023-04-15T09:18:11;101461.25;;;14.90;50.84
72685;BME280;61365;52.162;4.500;2023-04-15T09:20:39;101461.84;;;15.23;48.60
72685;BME280;61365;52.162;4.500;2023-04-15T09:23:11;101466.72;;;14.71;50.06
72685;BME280;61365;52.162;4.500;2023-04-15T09:25:39;101468.00;;;14.11;49.82
72685;BME280;61365;52.162;4.500;2023-04-15T09:28:07;101480.16;;;14.32;50.13
72685;BME280;61365;52.162;4.500;2023-04-15T09:30:33;101483.88;;;13.99;50.90
72685;BME280;61365;52.162;4.500;2023-04-15T09:33:00;101487.31;;;14.13;49.53
72685;BME280;61365;52.162;4.500;2023-04-15T09:35:29;101489.84;;;14.32;50.65
72685;BME280;61365;52.162;4.500;2023-04-15T09:38:02;101495.13;;;14.33;49.88
72685;BME280;61365;52.162;4.500;2023-04-15T09:40:37;101496.50;;;14.89;49.47
72685;BME280;61365;52.162;4.500;2023-04-15T09:43:06;101514.56;;;14.18;49.23
72685;BME280;61365;52.162;4.500;2023-04-15T09:45:37;101509.41;;;13.95;49.76
72685;BME280;61365;52.162;4.500;2023-04-15T09:48:17;101510.97;;;14.33;50.56
72685;BME280;61365;52.162;4.500;2023-04-15T09:50:51;101506.91;;;15.10;51.52
72685;BME280;61365;52.162;4.500;2023-04-15T09:53:23;101510.97;;;15.45;46.14
72685;BME280;61365;52.162;4.500;2023-04-15T09:55:51;101516.38;;;15.33;47.08
72685;BME280;61365;52.162;4.500;2023-04-15T09:58:31;101515.13;;;14.76;45.67
72685;BME280;61365;52.162;4.500;2023-04-15T10:01:01;101514.97;;;14.93;45.36
72685;BME280;61365;52.162;4.500;2023-04-15T10:03:29;101529.28;;;14.58;45.58
72685;BME280;61365;52.162;4.500;2023-04-15T10:05:57;101523.09;;;14.71;46.53
72685;BME280;61365;52.162;4.500;2023-04-15T10:08:29;101523.03;;;14.79;45.78
72685;BME280;61365;52.162;4.500;2023-04-15T10:10:58;101526.03;;;14.16;47.13
72685;BME280;61365;52.162;4.500;2023-04-15T10:13:28;101530.44;;;14.10;48.95
72685;BME280;61365;52.162;4.500;2023-04-15T10:15:59;101535.56;;;14.41;48.50
72685;BME280;61365;52.162;4.500;2023-04-15T10:18:29;101537.13;;;14.75;49.56
72685;BME280;61365;52.162;4.500;2023-04-15T10:20:59;101534.34;;;14.95;47.51
72685;BME280;61365;52.162;4.500;2023-04-15T10:23:25;101529.84;;;15.05;45.89
72685;BME280;61365;52.162;4.500;2023-04-15T10:25:52;101537.19;;;14.61;45.51
72685;BME280;61365;52.162;4.500;2023-04-15T10:28:19;101549.72;;;14.23;47.30
72685;BME280;61365;52.162;4.500;2023-04-15T10:30:49;101544.97;;;14.86;47.00
72685;BME280;61365;52.162;4.500;2023-04-15T10:33:17;101546.00;;;14.63;45.86
72685;BME280;61365;52.162;4.500;2023-04-15T10:35:45;101549.34;;;14.93;46.65
72685;BME280;61365;52.162;4.500;2023-04-15T10:43:59;101544.91;;;14.95;48.19
72685;BME280;61365;52.162;4.500;2023-04-15T10:49:09;101549.09;;;15.23;47.73
72685;BME280;61365;52.162;4.500;2023-04-15T10:51:43;101571.50;;;14.66;46.38
72685;BME280;61365;52.162;4.500;2023-04-15T10:54:29;101571.50;;;14.74;47.53
72685;BME280;61365;52.162;4.500;2023-04-15T11:00:10;101568.22;;;14.22;48.03
72685;BME280;61365;52.162;4.500;2023-04-15T11:02:58;101556.69;;;14.40;48.64
72685;BME280;61365;52.162;4.500;2023-04-15T11:05:19;101553.81;;;14.83;48.99
72685;BME280;61365;52.162;4.500;2023-04-15T11:07:47;101562.88;;;14.36;48.98
72685;BME280;61365;52.162;4.500;2023-04-15T11:12:55;101574.31;;;14.36;50.52
72685;BME280;61365;52.162;4.500;2023-04-15T11:18:10;101584.78;;;14.56;50.64
72685;BME280;61365;52.162;4.500;2023-04-15T11:20:50;101587.47;;;14.46;50.44
72685;BME280;61365;52.162;4.500;2023-04-15T11:23:26;101590.03;;;14.63;50.97
72685;BME280;61365;52.162;4.500;2023-04-15T11:25:59;101601.63;;;14.31;48.51
72685;BME280;61365;52.162;4.500;2023-04-15T11:28:28;101605.00;;;14.56;47.90
72685;BME280;61365;52.162;4.500;2023-04-15T11:30:56;101584.69;;;14.66;48.37
72685;BME280;61365;52.162;4.500;2023-04-15T11:33:23;101590.91;;;14.63;48.05
72685;BME280;61365;52.162;4.500;2023-04-15T11:35:53;101603.06;;;14.91;47.61
72685;BME280;61365;52.162;4.500;2023-04-15T11:38:19;101605.91;;;14.56;47.62
72685;BME280;61365;52.162;4.500;2023-04-15T11:40:46;101611.06;;;14.84;48.10
72685;BME280;61365;52.162;4.500;2023-04-15T11:43:15;101604.66;;;15.13;47.77
72685;BME280;61365;52.162;4.500;2023-04-15T11:45:48;101622.06;;;15.42;47.71
72685;BME280;61365;52.162;4.500;2023-04-15T11:48:25;101619.53;;;15.30;47.67
72685;BME280;61365;52.162;4.500;2023-04-15T11:50:56;101626.81;;;14.97;49.21
72685;BME280;61365;52.162;4.500;2023-04-15T11:53:24;101621.47;;;15.09;51.79
72685;BME280;61365;52.162;4.500;2023-04-15T11:56:15;101632.91;;;15.07;50.02
72685;BME280;61365;52.162;4.500;2023-04-15T11:58:43;101619.63;;;15.19;50.85
72685;BME280;61365;52.162;4.500;2023-04-15T12:01:10;101637.06;;;15.40;50.35
72685;BME280;61365;52.162;4.500;2023-04-15T12:06:30;101641.84;;;14.89;51.22
72685;BME280;61365;52.162;4.500;2023-04-15T12:09:11;101641.72;;;15.09;51.43
72685;BME280;61365;52.162;4.500;2023-04-15T12:11:39;101645.28;;;15.06;51.61
72685;BME280;61365;52.162;4.500;2023-04-15T12:16:53;101646.31;;;14.80;54.43
72685;BME280;61365;52.162;4.500;2023-04-15T12:19:24;101655.91;;;14.94;53.75
72685;BME280;61365;52.162;4.500;2023-04-15T12:22:00;101653.25;;;14.98;52.00
72685;BME280;61365;52.162;4.500;2023-04-15T12:24:32;101662.94;;;14.95;53.51
72685;BME280;61365;52.162;4.500;2023-04-15T12:27:04;101669.84;;;15.22;53.74
72685;BME280;61365;52.162;4.500;2023-04-15T12:29:32;101670.81;;;15.02;54.39
72685;BME280;61365;52.162;4.500;2023-04-15T12:32:09;101679.72;;;14.92;53.39
72685;BME280;61365;52.162;4.500;2023-04-15T12:34:44;101679.69;;;14.98;54.96
72685;BME280;61365;52.162;4.500;2023-04-15T12:37:15;101673.47;;;15.02;55.32
72685;BME280;61365;52.162;4.500;2023-04-15T12:39:42;101682.47;;;14.63;56.90
72685;BME280;61365;52.162;4.500;2023-04-15T12:42:10;101688.50;;;14.93;55.91
72685;BME280;61365;52.162;4.500;2023-04-15T12:44:38;101708.84;;;14.81;55.93
72685;BME280;61365;52.162;4.500;2023-04-15T12:47:04;101696.53;;;14.74;55.91
72685;BME280;61365;52.162;4.500;2023-04-15T12:49:32;101705.38;;;14.71;56.52
72685;BME280;61365;52.162;4.500;2023-04-15T12:51:59;101700.91;;;14.77;56.19
72685;BME280;61365;52.162;4.500;2023-04-15T12:54:27;101699.94;;;15.01;54.87
72685;BME280;61365;52.162;4.500;2023-04-15T12:56:54;101713.19;;;14.93;55.13
72685;BME280;61365;52.162;4.500;2023-04-15T12:59:22;101708.03;;;14.57;55.14
72685;BME280;61365;52.162;4.500;2023-04-15T13:01:49;101711.53;;;14.60;56.75
72685;BME280;61365;52.162;4.500;2023-04-15T13:04:19;101716.84;;;14.56;56.57
72685;BME280;61365;52.162;4.500;2023-04-15T13:06:46;101718.59;;;14.51;56.80
72685;BME280;61365;52.162;4.500;2023-04-15T13:09:13;101710.69;;;14.51;57.84
72685;BME280;61365;52.162;4.500;2023-04-15T13:11:39;101720.34;;;14.54;56.23
72685;BME280;61365;52.162;4.500;2023-04-15T13:14:06;101731.03;;;14.23;58.38
72685;BME280;61365;52.162;4.500;2023-04-15T13:16:34;101738.00;;;14.39;57.46
72685;BME280;61365;52.162;4.500;2023-04-15T13:19:00;101732.78;;;14.07;57.24